• Join FlightAware (Why Join?)
  • Login
  • US Flag 
01:29PM EDT


 

Airport Tracker/Info


-or-


 

Live Flight TrackerFlight Track Log ✈ VIR19 ✈ 05-Mar-2014 ✈ EGLL / LHR - KSFO

Flight Track Log - Related Links

Times and Time Zones

All times are in EST time to prevent confusion due to time zone crossing. See the VIR19 flight status page for this flight to view local times or setup timezone preferences in your user account.

Time Position Orientation Groundspeed Altitude Reporting Facility
EST Latitude Longitude Course Direction KTS MPH feet Rate Location/Type
06:24AM 51.4776 -0.4937 272° West 174 200 500  Level FlightAware ADS-B
06:24AM 51.4775 -0.4912 271° West 173 199 500 1,560 Level FlightAware ADS-B (EGLF / FAB)
06:25AM 51.4776 -0.5120 270° West 178 205 900 1,800 Climbing FlightAware ADS-B
06:25AM 51.4775 -0.5213 270° West 178 205 1,100 1,980 Climbing FlightAware ADS-B (EGLF / FAB)
06:25AM 51.4774 -0.5331 269° West 179 206 1,400 2,100 Climbing FlightAware ADS-B
06:25AM 51.4773 -0.5424 271° West 179 206 1,700 2,400 Climbing FlightAware ADS-B
06:25AM 51.4775 -0.5464 275° West 181 208 1,800 1,980 Climbing FlightAware ADS-B
06:25AM 51.4779 -0.5518 280° West 185 213 1,900 960 Climbing FlightAware ADS-B
06:25AM 51.4783 -0.5545 285° West 188 216 1,900  Level FlightAware ADS-B
06:25AM 51.4797 -0.5612 292° West 194 223 1,900  Level FlightAware ADS-B
06:25AM 51.4792 -0.5585 293° West 195 224 1,900 1,200 Level FlightAware ADS-B (EGLF / FAB)
06:25AM 51.4817 -0.5678 299° West 204 235 2,000 1,080 Climbing FlightAware ADS-B
06:25AM 51.4845 -0.5759 299° West 207 238 2,100 1,200 Climbing FlightAware ADS-B
06:26AM 51.4881 -0.5855 301° West 221 254 2,300 1,200 Climbing FlightAware ADS-B
06:26AM 51.4927 -0.5983 300° West 228 262 2,500 1,080 Climbing FlightAware ADS-B
06:26AM 51.4971 -0.6102 300° West 235 270 2,600 960 Climbing FlightAware ADS-B
06:26AM 51.5047 -0.6323 299° West 250 288 2,800 780 Climbing FlightAware ADS-B
06:26AM 51.5042 -0.6306 298° West 247 284 2,800 1,500 Level FlightAware ADS-B (EGLF / FAB)
06:26AM 51.5115 -0.6521 298° West 262 302 3,200 1,740 Climbing FlightAware ADS-B
06:26AM 51.5139 -0.6591 298° West 262 302 3,300 2,400 Climbing FlightAware ADS-B (EGTR / ETR)
06:26AM 51.5160 -0.6658 298° West 262 302 3,400 2,520 Climbing FlightAware ADS-B (EGLF / FAB)
06:26AM 51.5193 -0.6743 304° West 262 302 3,600 2,640 Climbing FlightAware ADS-B
06:27AM 51.5231 -0.6818 313° West 265 305 3,800 1,680 Climbing FlightAware ADS-B
06:27AM 51.5244 -0.6846 315° West 265 305 3,800 2,400 Level FlightAware ADS-B
06:27AM 51.5271 -0.6884 319° Northwest 267 307 4,000 3,000 Climbing FlightAware ADS-B
06:27AM 51.5282 -0.6896 325° Northwest 268 308 4,000 1,980 Level FlightAware ADS-B
06:27AM 51.5336 -0.6946 333° Northwest 271 312 4,200 1,680 Climbing FlightAware ADS-B
06:27AM 51.5361 -0.6961 338° Northwest 272 313 4,200 1,500 Level FlightAware ADS-B (EPRZ / RZE)
06:27AM 51.5374 -0.6969 339° North 272 313 4,300 2,520 Climbing FlightAware ADS-B
06:27AM 51.5452 -0.6999 351° North 275 316 4,500 2,400 Climbing FlightAware ADS-B
06:27AM 51.5517 -0.7008 North 279 321 4,700 3,000 Climbing FlightAware ADS-B
06:27AM 51.5583 -0.6999 North 281 323 5,000 3,000 Climbing FlightAware ADS-B
06:27AM 51.5583 -0.6999 10° North 281 323 5,000 2,400 Level FlightAware ADS-B
06:27AM 51.5774 -0.6947 North 281 323 5,600 2,580 Climbing FlightAware ADS-B
06:27AM 51.5774 -0.6947 North 281 323 5,700 2,400 Climbing FlightAware ADS-B
06:27AM 51.5896 -0.6924 North 274 315 6,000 2,760 Climbing FlightAware ADS-B (EGHO)
06:28AM 51.5965 -0.6918 North 283 326 6,300 3,960 Climbing FlightAware ADS-B
06:28AM 51.5878 -0.6926 North 283 326 6,400 1,980 Climbing FlightAware ADS-B
06:28AM 51.6118 -0.6909 North 284 327 6,700 1,680 Climbing FlightAware ADS-B (EGKA / ESH)
06:28AM 51.6166 -0.6909 North 283 326 6,800 1,200 Climbing FlightAware ADS-B
06:28AM 51.6180 -0.6910 359° North 281 323 6,800 1,200 Level FlightAware ADS-B (EGLC / LCY)
06:28AM 51.6225 -0.6911 359° North 281 323 6,900 840 Climbing FlightAware ADS-B
06:28AM 51.6259 -0.6912 North 283 326 6,900 840 Level FlightAware ADS-B
06:28AM 51.6310 -0.6914 358° North 279 321 7,000 360 Climbing FlightAware ADS-B (EGLC / LCY)
06:28AM 51.6482 -0.6925 358° North 282 325 7,000  Level FlightAware ADS-B
06:28AM 51.6495 -0.6926 358° North 280 322 7,000  Level FlightAware ADS-B (EGLF / FAB)
06:29AM 51.6728 -0.6940 360° North 281 323 7,000  Level FlightAware ADS-B (EGLF / FAB)
06:29AM 51.6690 -0.6940 359° North 282 325 7,000  Level FlightAware ADS-B
06:29AM 51.6806 -0.6940 North 281 323 7,000  Level FlightAware ADS-B
06:29AM 51.6906 -0.6939 North 282 325 7,000 300 Level FlightAware ADS-B (EGLC / LCY)
06:29AM 51.7063 -0.6937 North 284 327 7,100 360 Climbing FlightAware ADS-B
06:29AM 51.7097 -0.6937 North 284 327 7,100 1,680 Level FlightAware ADS-B (EGLC / LCY)
06:29AM 51.7158 -0.6937 360° North 284 327 7,300 2,400 Climbing FlightAware ADS-B (EGLC / LCY)
06:29AM 51.7229 -0.6936 360° North 277 319 7,500 2,400 Climbing FlightAware ADS-B (EGHO)
06:29AM 51.7266 -0.6937 360° North 286 329 7,700 1,560 Climbing FlightAware ADS-B (EGTR / ETR)
06:29AM 51.7423 -0.6937 360° North 286 329 7,900 720 Climbing FlightAware ADS-B (EGLC / LCY)
06:30AM 51.7505 -0.6937 360° North 286 329 7,900 600 Level FlightAware ADS-B
06:30AM 51.7558 -0.6937 North 287 330 8,000 660 Climbing FlightAware ADS-B (EGLC / LCY)
06:30AM 51.7624 -0.6933 North 289 333 8,000  Level FlightAware ADS-B (EGLC / LCY)
06:30AM 51.7645 -0.6931 North 288 331 8,000  Level FlightAware ADS-B
06:30AM 51.7779 -0.6881 17° North 290 334 8,000  Level FlightAware ADS-B
06:30AM 51.7917 -0.6800 21° North 295 339 8,000  Level FlightAware ADS-B
06:30AM 51.8008 -0.6745 21° North 294 338 8,000  Level FlightAware ADS-B (EGLC / LCY)
06:30AM 51.8198 -0.6626 21° North 293 337 8,000 540 Level FlightAware ADS-B (EGLC / LCY)
06:31AM 51.8389 -0.6507 21° North 297 342 8,300 1,800 Climbing FlightAware ADS-B (EGHO)
06:31AM 51.8465 -0.6458 22° Northeast 297 342 8,600 2,820 Climbing FlightAware ADS-B (EPRZ / RZE)
06:31AM 51.8616 -0.6369 20° North 299 344 9,100 2,220 Climbing FlightAware ADS-B
06:31AM 51.8623 -0.6361 21° North 300 345 9,700 2,220 Climbing FlightAware ADS-B (EGLC / LCY)
06:31AM 51.8919 -0.6178 21° North 300 345 10,000 1,920 Climbing FlightAware ADS-B
06:32AM 51.9196 -0.6011 20° North 310 357 10,700 1,800 Climbing FlightAware ADS-B (EGLF / FAB)
06:32AM 51.9332 -0.5931 20° North 314 361 10,900 1,320 Climbing FlightAware ADS-B
06:32AM 51.9679 -0.5734 19° North 333 383 11,400 1,320 Climbing FlightAware ADS-B (EGTR / ETR)
06:32AM 51.9712 -0.5712 17° North 334 384 11,500 1,200 Climbing FlightAware ADS-B
06:32AM 51.9836 -0.5672 North 338 389 11,600 960 Climbing FlightAware ADS-B
06:32AM 51.9403 -0.5891 North 341 392 11,700 960 Climbing FlightAware ADS-B (EGLF / FAB)
06:33AM 52.0023 -0.5659 North 345 397 11,800 900 Climbing FlightAware ADS-B
06:33AM 52.0096 -0.5660 359° North 348 400 11,900 1,320 Climbing FlightAware ADS-B
06:33AM 52.0121 -0.5661 359° North 351 404 12,000 1,140 Climbing FlightAware ADS-B (EPRZ / RZE)
06:33AM 52.0437 -0.5667 360° North 364 419 12,300 960 Climbing FlightAware ADS-B (EGWE)
06:33AM 52.0579 -0.5669 359° North 369 425 12,400 780 Climbing FlightAware ADS-B
06:33AM 52.0705 -0.5681 355° North 374 430 12,500 1,080 Climbing FlightAware ADS-B
06:33AM 52.0840 -0.5719 348° North 377 434 12,700 1,080 Climbing FlightAware ADS-B (EGHO)
06:33AM 52.0887 -0.5740 345° North 378 435 12,700 1,980 Level FlightAware ADS-B
06:34AM 52.1013 -0.5810 339° North 378 435 13,000 2,220 Climbing FlightAware ADS-B
06:34AM 52.1022 -0.5810 338° Northwest 379 436 13,000 1,320 Level FlightAware ADS-B (EGHO)
06:34AM 52.1148 -0.5904 333° Northwest 380 437 13,200 1,740 Climbing FlightAware ADS-B
06:34AM 52.1447 -0.6198 328° Northwest 385 443 14,000 1,980 Climbing FlightAware ADS-B
06:34AM 52.1557 -0.6307 328° Northwest 385 443 14,100 3,180 Climbing FlightAware ADS-B
06:34AM 52.1745 -0.6506 329° Northwest 387 445 14,700 2,160 Climbing FlightAware ADS-B
06:35AM 52.2026 -0.6780 329° Northwest 389 448 15,200 1,680 Climbing FlightAware ADS-B
06:35AM 52.2165 -0.6917 328° Northwest 383 441 15,500 1,860 Climbing FlightAware ADS-B (EGHO)
06:35AM 52.2508 -0.7255 328° Northwest 392 451 16,200 1,920 Climbing FlightAware ADS-B
06:35AM 52.2687 -0.7443 328° Northwest 385 443 16,600 1,980 Climbing FlightAware ADS-B (EGHH / BOH)
06:36AM 52.2978 -0.7745 327° Northwest 397 457 17,200 1,800 Climbing FlightAware ADS-B
06:36AM 52.3045 -0.7811 327° Northwest 398 458 17,300 1,560 Climbing FlightAware ADS-B (EGHO)
06:36AM 52.3450 -0.8233 328° Northwest 403 464 18,000 1,740 Climbing FlightAware ADS-B
06:37AM 52.3709 -0.8495 327° Northwest 405 466 18,600 1,860 Climbing FlightAware ADS-B (EGLF / FAB)
06:37AM 52.3947 -0.8746 327° Northwest 407 468 19,000 1,740 Climbing FlightAware ADS-B
06:37AM 52.4207 -0.9033 327° Northwest 411 473 19,500 1,680 Climbing FlightAware ADS-B (EGWE)
06:37AM 52.4572 -0.9427 327° Northwest 412 474 20,100 1,620 Climbing FlightAware ADS-B
06:38AM 52.4757 -0.9615 327° Northwest 409 471 20,400 1,800 Climbing FlightAware ADS-B (EGHO)
06:38AM 52.4929 -0.9806 326° Northwest 410 472 20,800 2,100 Climbing FlightAware ADS-B (EGHO)
06:38AM 52.5091 -0.9979 327° Northwest 418 481 21,100 1,800 Climbing FlightAware ADS-B
06:38AM 52.5319 -1.0218 328° Northwest 419 482 21,500 1,620 Climbing FlightAware ADS-B
06:38AM 52.5379 -1.0268 329° Northwest 413 475 21,600 1,500 Climbing FlightAware ADS-B
06:38AM 52.5509 -1.0394 331° Northwest 420 483 21,800 2,280 Climbing FlightAware ADS-B
06:38AM 52.5608 -1.0487 333° Northwest 421 484 22,100 1,800 Climbing FlightAware ADS-B
06:39AM 52.6033 -1.0833 334° Northwest 425 489 22,700 1,500 Climbing FlightAware ADS-B
06:39AM 52.6136 -1.0918 334° Northwest 425 489 22,900 1,800 Climbing FlightAware ADS-B (EGHO)
06:39AM 52.6208 -1.0974 335° Northwest 425 489 23,000 1,680 Climbing FlightAware ADS-B
06:39AM 52.6581 -1.1264 335° Northwest 428 493 23,600 1,920 Climbing FlightAware ADS-B
06:39AM 52.6651 -1.1318 335° Northwest 429 494 23,800 1,800 Climbing FlightAware ADS-B
06:40AM 52.7127 -1.1679 335° Northwest 432 497 24,500 1,680 Climbing FlightAware ADS-B
06:40AM 52.7163 -1.1705 335° Northwest 425 489 24,600 1,980 Climbing FlightAware ADS-B (EGNR / CEG)
06:40AM 52.7239 -1.1762 336° Northwest 432 497 24,700 1,500 Climbing FlightAware ADS-B
06:40AM 52.7527 -1.1983 335° Northwest 428 493 25,100 1,500 Climbing FlightAware ADS-B (EGNR / CEG)
06:40AM 52.7676 -1.2094 335° Northwest 435 501 25,300 1,560 Climbing FlightAware ADS-B
06:41AM 52.7777 -1.2178 335° Northwest 438 504 25,500 1,800 Climbing FlightAware ADS-B (EGLF / FAB)
06:41AM 52.8230 -1.2517 335° Northwest 440 506 26,200 1,560 Climbing FlightAware ADS-B
06:41AM 52.8344 -1.2615 335° Northwest 441 507 26,300 1,260 Climbing FlightAware ADS-B (EGCD)
06:41AM 52.8142 -1.2460 335° Northwest 440 506 26,600 1,920 Climbing FlightAware ADS-B
06:42AM 52.8923 -1.3056 335° Northwest 441 507 27,300 2,280 Climbing FlightAware ADS-B
06:42AM 52.9049 -1.3155 334° Northwest 431 496 27,600 2,460 Climbing FlightAware ADS-B (EGHO)
06:42AM 52.9633 -1.3602 335° Northwest 427 491 28,900 2,400 Climbing FlightAware ADS-B
06:42AM 52.9961 -1.3863 335° Northwest 423 487 29,600 2,400 Climbing FlightAware ADS-B
06:43AM 53.0107 -1.3972 334° Northwest 412 474 30,000 2,280 Climbing FlightAware ADS-B (EGHO)
06:43AM 53.0186 -1.4027 334° Northwest 412 474 30,100 1,620 Climbing FlightAware ADS-B (EGNR / CEG)
06:43AM 53.0499 -1.4272 335° Northwest 417 480 30,600 1,740 Climbing FlightAware ADS-B
06:43AM 53.0669 -1.4409 334° Northwest 408 470 30,900 1,860 Climbing FlightAware ADS-B (EGOW)
06:43AM 53.0840 -1.4543 334° Northwest 407 468 31,200 1,800 Climbing FlightAware ADS-B (EGOW)
06:44AM 53.1057 -1.4704 335° Northwest 413 475 31,600 1,560 Climbing FlightAware ADS-B
06:44AM 53.1346 -1.4934 335° Northwest 413 475 32,000 840 Climbing FlightAware ADS-B (EGFH / SWS)
06:44AM 53.1530 -1.5083 334° Northwest 407 468 32,000  Level FlightAware ADS-B (EGOW)
06:44AM 53.1590 -1.5123 335° Northwest 414 476 32,000  Level FlightAware ADS-B
06:44AM 53.1749 -1.5245 334° Northwest 407 468 32,000  Level FlightAware ADS-B (EGCB)
06:44AM 53.1871 -1.5340 334° Northwest 407 468 32,000  Level FlightAware ADS-B (EGOW)
06:45AM 53.2045 -1.5475 334° Northwest 407 468 32,000  Level FlightAware ADS-B (EGNR / CEG)
06:45AM 53.2120 -1.5542 335° Northwest 413 475 32,000  Level FlightAware ADS-B
06:45AM 53.2574 -1.5895 335° Northwest 412 474 32,000  Level FlightAware ADS-B
06:45AM 53.2645 -1.5949 335° Northwest 412 474 32,000  Level FlightAware ADS-B
06:46AM 53.3092 -1.6300 335° Northwest 411 473 32,000  Level FlightAware ADS-B (EGOW)
06:46AM 53.3163 -1.6355 335° Northwest 412 474 32,000  Level FlightAware ADS-B
06:46AM 53.3636 -1.6735 335° Northwest 411 473 32,000  Level FlightAware ADS-B (EGFH / SWS)
06:46AM 53.3785 -1.6857 335° Northwest 412 474 32,000  Level FlightAware ADS-B
06:47AM 53.4140 -1.7128 335° Northwest 412 474 32,000  Level FlightAware ADS-B (EGFH / SWS)
06:47AM 53.4540 -1.7442 335° Northwest 412 474 32,000  Level FlightAware ADS-B
06:47AM 53.4700 -1.7579 335° Northwest 412 474 32,000  Level FlightAware ADS-B (EGBS)
06:47AM 53.5060 -1.7865 335° Northwest 411 473 32,000  Level FlightAware ADS-B
06:48AM 53.5278 -1.8042 335° Northwest 410 472 32,000  Level FlightAware ADS-B (EGFH / SWS)
06:48AM 53.5577 -1.8273 335° Northwest 409 471 32,000  Level FlightAware ADS-B
06:48AM 53.5800 -1.8452 335° Northwest 410 472 32,000  Level FlightAware ADS-B (EGFH / SWS)
06:49AM 53.6185 -1.8766 335° Northwest 409 471 32,000  Level FlightAware ADS-B
06:49AM 53.6297 -1.8849 335° Northwest 408 470 32,000  Level FlightAware ADS-B (EGBS)
06:49AM 53.6852 -1.9299 335° Northwest 409 471 32,000  Level FlightAware ADS-B (EGCD)
06:50AM 53.7356 -1.9697 334° Northwest 409 471 32,000  Level FlightAware ADS-B (EGCD)
06:50AM 53.7709 -1.9985 334° Northwest 409 471 32,000  Level FlightAware ADS-B (EGCD)
06:51AM 53.8220 -2.0400 334° Northwest 409 471 32,000  Level FlightAware ADS-B (EGXU / HRT)
06:51AM 53.8741 -2.0814 334° Northwest 410 472 32,000  Level FlightAware ADS-B (EGCD)
06:52AM 53.9258 -2.1245 334° Northwest 412 474 32,000  Level FlightAware ADS-B (EGCD)
06:52AM 53.9611 -2.1525 334° Northwest 411 473 32,000  Level FlightAware ADS-B (EGCD)
06:53AM 54.0222 -2.2028 334° Northwest 411 473 32,000  Level FlightAware ADS-B (EGCD)
06:53AM 54.0889 -2.2575 334° Northwest 412 474 32,000  Level FlightAware ADS-B (EGNA)
06:54AM 54.1426 -2.3045 328° Northwest 409 471 32,000  Level FlightAware ADS-B (EGCC / MAN)
06:54AM 54.1550 -2.3192 323° Northwest 400 460 32,000  Level FlightAware ADS-B (EGPK / PIK)
06:54AM 54.1613 -2.3268 323° Northwest 406 467 32,000  Level FlightAware ADS-B (EGXU / HRT)
06:54AM 54.1714 -2.3402 323° Northwest 407 468 32,000  Level FlightAware ADS-B (EGCC / MAN)
06:54AM 54.2173 -2.3975 323° Northwest 401 461 32,000  Level FlightAware ADS-B (EGPK / PIK)
06:55AM 54.2630 -2.4532 325° Northwest 408 470 32,000  Level FlightAware ADS-B (EGXU / HRT)
06:55AM 54.3111 -2.5079 326° Northwest 411 473 32,000  Level FlightAware ADS-B (EGPH / EDI)
06:56AM 54.3606 -2.5660 326° Northwest 412 474 32,000  Level FlightAware ADS-B (EGXU / HRT)
06:56AM 54.3760 -2.5824 325° Northwest 407 468 32,000  Level FlightAware ADS-B (EGPK / PIK)
06:57AM 54.4225 -2.6372 326° Northwest 413 475 32,000  Level FlightAware ADS-B (EGXU / HRT)
06:57AM 54.4550 -2.6738 334° Northwest 411 473 32,000  Level FlightAware ADS-B
06:57AM 54.4759 -2.6994 334° Northwest 411 473 32,000  Level FlightAware ADS-B
06:58AM 54.5259 -2.7564 326° Northwest 412 474 32,000  Level FlightAware ADS-B (EGCD)
06:58AM 54.5739 -2.8138 326° Northwest 412 474 32,000  Level FlightAware ADS-B (EGNT / NCL)
06:59AM 54.6279 -2.8772 326° Northwest 413 475 32,000  Level FlightAware ADS-B (EGNT / NCL)
06:59AM 54.6321 -2.8828 325° Northwest 411 473 32,000  Level FlightAware ADS-B
06:59AM 54.6804 -2.9408 325° Northwest 413 475 32,000  Level FlightAware ADS-B (EGAA / BFS)
07:00AM 54.7362 -3.0094 325° Northwest 413 475 32,000  Level FlightAware ADS-B (EGNT / NCL)
07:00AM 54.7815 -3.0650 325° Northwest 413 475 32,000  Level FlightAware ADS-B (EGNT / NCL)
07:01AM 54.8249 -3.1185 324° Northwest 414 476 32,000  Level FlightAware ADS-B (EGPH / EDI)
07:01AM 54.8392 -3.1366 321° Northwest 413 475 32,000  Level FlightAware ADS-B (EGGP / LPL)
07:02AM 54.8806 -3.1959 319° Northwest 407 468 32,000  Level FlightAware ADS-B
07:02AM 54.9248 -3.2599 320° Northwest 414 476 32,000  Level FlightAware ADS-B
07:03AM 54.9724 -3.3298 321° Northwest 415 478 32,000  Level FlightAware ADS-B (EGPH / EDI)
07:03AM 55.0260 -3.4055 321° Northwest 412 474 32,000  Level FlightAware ADS-B (EGPH / EDI)
07:04AM 55.0761 -3.4766 321° Northwest 412 474 32,000  Level FlightAware ADS-B (EGPK / PIK)
07:04AM 55.1015 -3.5125 321° Northwest 411 473 32,000  Level FlightAware ADS-B
07:04AM 55.1234 -3.5438 321° Northwest 410 472 32,000  Level FlightAware ADS-B (EGAA / BFS)
07:04AM 55.1285 -3.5500 320° Northwest 405 466 32,000  Level FlightAware ADS-B (EGNR / CEG)
07:05AM 55.1801 -3.6240 321° Northwest 413 475 32,000  Level FlightAware ADS-B (EGPK / PIK)
07:05AM 55.2034 -3.6580 320° Northwest 407 468 32,000  Level FlightAware ADS-B (EGNR / CEG)
07:06AM 55.2475 -3.7217 321° Northwest 413 475 32,000  Level FlightAware ADS-B (EGAA / BFS)
07:06AM 55.2975 -3.7942 320° Northwest 407 468 32,000  Level FlightAware ADS-B
07:07AM 55.3446 -3.8627 320° Northwest 407 468 32,000  Level FlightAware ADS-B
07:07AM 55.3895 -3.9292 320° Northwest 416 479 32,000  Level FlightAware ADS-B
07:08AM 55.4338 -3.9943 320° Northwest 418 481 32,000  Level FlightAware ADS-B
07:08AM 55.4776 -4.0577 320° Northwest 418 481 32,000  Level FlightAware ADS-B
07:09AM 55.5243 -4.1255 320° Northwest 419 482 32,000  Level FlightAware ADS-B
07:09AM 55.5686 -4.1914 320° Northwest 420 483 32,000  Level FlightAware ADS-B
07:10AM 55.6186 -4.2665 320° Northwest 421 484 32,000  Level FlightAware ADS-B (EGAA / BFS)
07:10AM 55.6693 -4.3415 320° Northwest 420 483 32,000  Level FlightAware ADS-B (EGPG)
07:11AM 55.7133 -4.4077 320° Northwest 420 483 32,000  Level FlightAware ADS-B (EGAA / BFS)
07:11AM 55.7568 -4.4719 320° Northwest 419 482 32,000  Level FlightAware ADS-B (EGPH / EDI)
07:12AM 55.8063 -4.5469 320° Northwest 417 480 32,000  Level FlightAware ADS-B (EGAA / BFS)
07:12AM 55.8175 -4.5622 319° Northwest 410 472 32,000  Level FlightAware ADS-B (EGPK / PIK)
07:12AM 55.8480 -4.6088 319° Northwest 409 471 32,000  Level FlightAware ADS-B (EGPK / PIK)
07:13AM 55.8956 -4.6819 320° Northwest 414 476 32,000  Level FlightAware ADS-B (EGPG)
07:14AM 55.9450 -4.7573 319° Northwest 415 478 32,000  Level FlightAware ADS-B (EGPF / GLA)
07:14AM 55.9884 -4.8238 319° Northwest 415 478 32,000  Level FlightAware ADS-B (EGAA / BFS)
07:15AM 56.0347 -4.8953 319° Northwest 416 479 32,000  Level FlightAware ADS-B (EGPG)
07:15AM 56.0780 -4.9602 319° Northwest 416 479 32,000  Level FlightAware ADS-B (EGPF / GLA)
07:16AM 56.1271 -5.0366 319° Northwest 416 479 32,000  Level FlightAware ADS-B (EGPH / EDI)
07:16AM 56.1705 -5.1041 319° Northwest 416 479 32,000  Level FlightAware ADS-B (EGAA / BFS)
07:17AM 56.2174 -5.1773 319° Northwest 418 481 32,000  Level FlightAware UK
07:17AM 56.2234 -5.1855 318° Northwest 411 473 32,000  Level FlightAware ADS-B (EGAE / LDY)
07:17AM 56.2715 -5.2604 318° Northwest 412 474 32,000  Level FlightAware ADS-B (EGPK / PIK)
07:18AM 56.2977 -5.3012 318° Northwest 412 474 32,000  Level FlightAware ADS-B (EGPK / PIK)
07:18AM 56.3073 -5.3171 318° Northwest 412 474 32,000  Level FlightAware ADS-B (EGAE / LDY)
07:18AM 56.3483 -5.3811 319° Northwest 418 481 32,000  Level FlightAware ADS-B (EGAA / BFS)
07:19AM 56.3999 -5.4612 319° Northwest 418 481 32,000  Level FlightAware ADS-B (EGPF / GLA)
07:19AM 56.4446 -5.5324 319° Northwest 419 482 32,000  Level FlightAware ADS-B (EGPH / EDI)
07:20AM 56.4717 -5.5763 318° Northwest 413 475 32,000  Level FlightAware ADS-B (EGAE / LDY)
07:20AM 56.5021 -5.6225 318° Northwest 413 475 32,000  Level FlightAware ADS-B (EGAE / LDY)
07:20AM 56.5314 -5.6710 318° Northwest 414 476 32,000  Level FlightAware ADS-B (EGAE / LDY)
07:20AM 56.5433 -5.6895 319° Northwest 420 483 32,000  Level FlightAware ADS-B (EGPG)
07:21AM 56.5909 -5.7660 319° Northwest 420 483 32,000  Level FlightAware ADS-B (EGAA / BFS)
07:21AM 56.6209 -5.8127 318° Northwest 414 476 32,000  Level FlightAware ADS-B (EGPK / PIK)
07:22AM 56.6541 -5.8663 318° Northwest 414 476 32,000  Level FlightAware ADS-B (EGAE / LDY)
07:22AM 56.7021 -5.9433 318° Northwest 414 476 32,000  Level FlightAware ADS-B (EGAE / LDY)
07:23AM 56.7599 -6.0373 318° Northwest 415 478 32,000  Level FlightAware ADS-B (EGAE / LDY)
07:23AM 56.8089 -6.1173 318° Northwest 415 478 32,000  Level FlightAware ADS-B (EGAE / LDY)
07:24AM 56.8656 -6.2092 317° Northwest 414 476 32,000  Level FlightAware ADS-B (EGAE / LDY)
07:25AM 56.9244 -6.3037 317° Northwest 414 476 32,000  Level FlightAware ADS-B (EGAE / LDY)
07:25AM 56.9808 -6.3983 317° Northwest 415 478 32,000  Level FlightAware ADS-B (EGAE / LDY)
07:26AM 57.0390 -6.4939 317° Northwest 417 480 32,000  Level FlightAware ADS-B (EGAE / LDY)
07:27AM 57.0971 -6.5880 317° Northwest 420 483 32,000  Level FlightAware ADS-B (EGAE / LDY)
07:27AM 57.1412 -6.6634 317° Northwest 428 493 32,000  Level FlightAware UK
07:28AM 57.1852 -6.7368 318° Northwest 430 495 32,000  Level FlightAware UK
07:28AM 57.2291 -6.8106 318° Northwest 430 495 32,000  Level FlightAware UK
07:28AM 57.2472 -6.8397 317° Northwest 422 486 32,000  Level FlightAware ADS-B (EGAE / LDY)
07:29AM 57.3006 -6.9307 317° Northwest 422 486 32,000  Level FlightAware ADS-B (EGAE / LDY)
07:30AM 57.3607 -7.0320 317° Northwest 426 490 32,000  Level FlightAware UK
07:30AM 57.3780 -7.0609 317° Northwest 420 483 32,000  Level FlightAware ADS-B (EGAE / LDY)
07:31AM 57.4476 -7.1796 317° Northwest 426 490 32,000  Level FlightAware UK
07:31AM 57.4910 -7.2536 317° Northwest 426 490 32,000  Level FlightAware UK
07:32AM 57.5342 -7.3281 317° Northwest 426 490 32,000  Level FlightAware UK
07:32AM 57.5775 -7.4026 317° Northwest 426 490 32,000 180 Level FlightAware UK
07:33AM 57.6209 -7.4773 317° Northwest 428 493 32,200 960 Climbing FlightAware UK
07:33AM 57.6642 -7.5522 317° Northwest 428 493 33,000 1,560 Climbing FlightAware UK
07:34AM 57.7075 -7.6274 317° Northwest 426 490 33,800 780 Climbing FlightAware UK
07:34AM 57.7589 -7.7167 317° Northwest 424 488 33,900 180 Climbing FlightAware UK
07:35AM 57.8017 -7.7917 317° Northwest 422 486 34,000 60 Climbing FlightAware UK
07:35AM 57.8443 -7.8664 317° Northwest 422 486 34,000  Level FlightAware UK
07:36AM 57.8868 -7.9410 317° Northwest 422 486 34,000  Level FlightAware UK
07:36AM 57.9291 -8.0161 317° Northwest 422 486 34,000  Level FlightAware UK
07:37AM 57.9714 -8.0913 317° Northwest 422 486 34,000  Level FlightAware UK
07:37AM 58.0137 -8.1668 317° Northwest 422 486 34,000  Level FlightAware UK
07:38AM 58.0560 -8.2424 317° Northwest 420 483 34,000  Level FlightAware UK
07:38AM 58.0983 -8.3175 317° Northwest 420 483 34,000  Level FlightAware UK
07:39AM 58.1403 -8.3929 317° Northwest 418 481 34,000  Level FlightAware UK
07:39AM 58.1820 -8.4685 316° Northwest 418 481 34,000  Level FlightAware UK
07:40AM 58.2236 -8.5441 316° Northwest 416 479 34,000  Level FlightAware UK
07:40AM 58.2651 -8.6196 316° Northwest 416 479 34,000  Level FlightAware UK
07:41AM 58.3065 -8.6951 316° Northwest 414 476 34,000  Level FlightAware UK
07:41AM 58.3479 -8.7703 316° Northwest 414 476 34,000  Level FlightAware UK
07:42AM 58.3891 -8.8457 316° Northwest 412 474 34,000  Level FlightAware UK
07:42AM 58.4299 -8.9211 316° Northwest 412 474 34,000  Level FlightAware UK
07:43AM 58.4705 -8.9966 316° Northwest 412 474 34,000  Level FlightAware UK
07:45AM 58.5990 -9.3030 309° West  Level Estimated
07:52AM 59.1414 -10.6416 309° West  Level Estimated
07:53AM 59.2178 -10.8362 308° West  Level Estimated
07:54AM 59.2938 -11.0318 307° West  Level Estimated
07:55AM 59.3696 -11.2282 307° West  Level Estimated
07:56AM 59.4450 -11.4255 307° West  Level Estimated
07:57AM 59.5202 -11.6237 307° West  Level Estimated
07:58AM 59.5951 -11.8227 307° West  Level Estimated
07:59AM 59.6696 -12.0227 306° West  Level Estimated
08:00AM 59.7439 -12.2235 306° West  Level Estimated
08:01AM 59.8178 -12.4252 306° West  Level Estimated
08:02AM 59.8914 -12.6279 306° West  Level Estimated
08:03AM 59.9648 -12.8314 306° West  Level Estimated
08:04AM 60.0378 -13.0358 306° West  Level Estimated
08:05AM 60.1105 -13.2411 305° West  Level Estimated
08:06AM 60.1828 -13.4474 305° West  Level Estimated
08:07AM 60.2549 -13.6545 305° West  Level Estimated
08:08AM 60.3266 -13.8626 305° West  Level Estimated
08:09AM 60.3980 -14.0715 305° West  Level Estimated
08:10AM 60.4691 -14.2814 305° West  Level Estimated
08:11AM 60.5398 -14.4922 304° West  Level Estimated
08:12AM 60.6102 -14.7039 304° West  Level Estimated
08:13AM 60.6803 -14.9166 304° West  Level Estimated
08:14AM 60.7500 -15.1301 304° West  Level Estimated
08:15AM 60.8194 -15.3447 304° West  Level Estimated
08:16AM 60.8884 -15.5601 303° West  Level Estimated
08:17AM 60.9571 -15.7764 303° West  Level Estimated
08:18AM 61.0255 -15.9937 303° West  Level Estimated
08:19AM 61.0935 -16.2120 303° West  Level Estimated
08:20AM 61.1611 -16.4312 303° West  Level Estimated
08:21AM 61.2284 -16.6513 302° West  Level Estimated
08:22AM 61.2953 -16.8723 302° West  Level Estimated
08:23AM 61.3619 -17.0943 302° West  Level Estimated
08:24AM 61.4281 -17.3172 302° West  Level Estimated
08:25AM 61.4940 -17.5411 302° West  Level Estimated
08:26AM 61.5594 -17.7659 302° West  Level Estimated
08:27AM 61.6245 -17.9917 301° West  Level Estimated
08:28AM 61.6893 -18.2185 301° West  Level Estimated
08:29AM 61.7536 -18.4461 301° West  Level Estimated
08:30AM 61.8176 -18.6748 301° West  Level Estimated
08:31AM 61.8812 -18.9043 301° West  Level Estimated
08:32AM 61.9444 -19.1349 300° West  Level Estimated
08:33AM 62.0072 -19.3664 300° West  Level Estimated
08:34AM 62.0697 -19.5988 300° West  Level Estimated
08:35AM 62.1317 -19.8322 300° West  Level Estimated
08:36AM 62.1934 -20.0665 299° West  Level Estimated
08:37AM 62.2546 -20.3019 299° West  Level Estimated
08:38AM 62.3154 -20.5381 299° West  Level Estimated
08:39AM 62.3759 -20.7753 299° West  Level Estimated
08:40AM 62.4359 -21.0135 299° West  Level Estimated
08:41AM 62.4956 -21.2526 298° West  Level Estimated
08:42AM 62.5548 -21.4927 298° West  Level Estimated
08:43AM 62.6136 -21.7337 298° West  Level Estimated
08:44AM 62.6720 -21.9757 298° West  Level Estimated
08:45AM 62.7300 -22.2187 298° West  Level Estimated
08:46AM 62.7875 -22.4626 297° West  Level Estimated
08:47AM 62.8447 -22.7074 297° West  Level Estimated
08:48AM 62.9014 -22.9532 297° West  Level Estimated
08:49AM 62.9577 -23.1999 297° West  Level Estimated
08:50AM 63.0135 -23.4476 297° West  Level Estimated
08:51AM 63.0689 -23.6963 296° West  Level Estimated
08:52AM 63.1239 -23.9459 296° West  Level Estimated
08:53AM 63.1784 -24.1964 296° West  Level Estimated
08:54AM 63.2325 -24.4479 296° West  Level Estimated
08:55AM 63.2862 -24.7003 295° West  Level Estimated
08:56AM 63.3393 -24.9536 295° West  Level Estimated
08:57AM 63.3921 -25.2079 295° West  Level Estimated
08:58AM 63.4444 -25.4631 295° West  Level Estimated
08:59AM 63.4962 -25.7192 294° West  Level Estimated
09:00AM 63.5476 -25.9763 294° West  Level Estimated
09:01AM 63.5985 -26.2343 294° West  Level Estimated
09:02AM 63.6490 -26.4932 294° West  Level Estimated
09:03AM 63.6989 -26.7530 294° West  Level Estimated
09:04AM 63.7485 -27.0138 293° West  Level Estimated
09:05AM 63.7975 -27.2754 293° West  Level Estimated
09:06AM 63.8461 -27.5380 293° West  Level Estimated
09:07AM 63.8941 -27.8015 293° West  Level Estimated
09:08AM 63.9418 -28.0658 292° West  Level Estimated
09:09AM 63.9889 -28.3311 292° West  Level Estimated
09:10AM 64.0355 -28.5972 292° West  Level Estimated
09:11AM 64.0817 -28.8643 292° West  Level Estimated
09:12AM 64.1273 -29.1322 291° West  Level Estimated
09:13AM 64.1725 -29.4010 291° West  Level Estimated
09:14AM 64.2172 -29.6707 291° West  Level Estimated
09:15AM 64.2613 -29.9412 291° West  Level Estimated
09:16AM 64.3050 -30.2126 290° West  Level Estimated
09:17AM 64.3482 -30.4848 290° West  Level Estimated
09:18AM 64.3908 -30.7580 290° West  Level Estimated
09:19AM 64.4330 -31.0319 290° West  Level Estimated
09:20AM 64.4746 -31.3067 289° West  Level Estimated
09:21AM 64.5158 -31.5823 289° West  Level Estimated
09:22AM 64.5564 -31.8588 289° West  Level Estimated
09:23AM 64.5965 -32.1360 289° West  Level Estimated
09:24AM 64.6360 -32.4141 288° West  Level Estimated
09:25AM 64.6751 -32.6930 288° West  Level Estimated
09:26AM 64.7136 -32.9727 288° West  Level Estimated
09:27AM 64.7516 -33.2532 288° West  Level Estimated
09:28AM 64.7890 -33.5344 287° West  Level Estimated
09:29AM 64.8260 -33.8165 287° West  Level Estimated
09:30AM 64.8624 -34.0993 287° West  Level Estimated
09:31AM 64.8982 -34.3828 287° West  Level Estimated
09:32AM 64.9335 -34.6671 286° West  Level Estimated
09:33AM 64.9683 -34.9522 286° West  Level Estimated
09:34AM 65.0025 -35.2380 286° West  Level Estimated
09:35AM 65.0362 -35.5246 286° West  Level Estimated
09:36AM 65.0693 -35.8118 285° West  Level Estimated
09:37AM 65.1019 -36.0998 285° West  Level Estimated
09:38AM 65.1339 -36.3884 285° West  Level Estimated
09:39AM 65.1654 -36.6777 285° West  Level Estimated
09:40AM 65.1963 -36.9678 284° West  Level Estimated
09:41AM 65.2266 -37.2585 284° West  Level Estimated
09:42AM 65.2564 -37.5498 284° West  Level Estimated
09:43AM 65.2856 -37.8419 284° West  Level Estimated
09:44AM 65.3143 -38.1345 283° West  Level Estimated
09:45AM 65.3423 -38.4278 283° West  Level Estimated
09:46AM 65.3699 -38.7217 283° West  Level Estimated
09:47AM 65.3968 -39.0162 283° West  Level Estimated
09:48AM 65.4232 -39.3113 282° West  Level Estimated
09:49AM 65.4490 -39.6070 282° West  Level Estimated
09:50AM 65.4742 -39.9033 282° West  Level Estimated
09:51AM 65.4988 -40.2002 281° West  Level Estimated
09:52AM 65.5229 -40.4976 281° West  Level Estimated
09:53AM 65.5463 -40.7955 281° West  Level Estimated
09:54AM 65.5692 -41.0940 281° West  Level Estimated
09:55AM 65.5915 -41.3930 280° West  Level Estimated
09:56AM 65.6132 -41.6925 280° West  Level Estimated
09:57AM 65.6343 -41.9925 280° West  Level Estimated
09:58AM 65.6548 -42.2929 280° West  Level Estimated
09:59AM 65.6748 -42.5939 279° West  Level Estimated
10:00AM 65.6941 -42.8953 279° West  Level Estimated
10:01AM 65.7129 -43.1971 279° West  Level Estimated
10:02AM 65.7310 -43.4994 278° West  Level Estimated
10:03AM 65.7486 -43.8021 278° West  Level Estimated
10:04AM 65.7655 -44.1052 278° West  Level Estimated
10:05AM 65.7819 -44.4087 278° West  Level Estimated
10:06AM 65.7976 -44.7125 277° West  Level Estimated
10:07AM 65.8128 -45.0168 277° West  Level Estimated
10:08AM 65.8273 -45.3214 277° West  Level Estimated
10:09AM 65.8412 -45.6263 277° West  Level Estimated
10:10AM 65.8546 -45.9315 276° West  Level Estimated
10:11AM 65.8673 -46.2371 276° West  Level Estimated
10:12AM 65.8794 -46.5429 276° West  Level Estimated
10:13AM 65.8909 -46.8490 275° West  Level Estimated
10:14AM 65.9018 -47.1554 275° West  Level Estimated
10:15AM 65.9120 -47.4621 275° West  Level Estimated
10:16AM 65.9217 -47.7690 275° West  Level Estimated
10:17AM 65.9308 -48.0761 274° West  Level Estimated
10:18AM 65.9392 -48.3834 274° West  Level Estimated
10:19AM 65.9470 -48.6909 274° West  Level Estimated
10:20AM 65.9542 -48.9986 273° West  Level Estimated
10:21AM 65.9608 -49.3065 273° West  Level Estimated
10:22AM 65.9668 -49.6145 273° West  Level Estimated
10:23AM 65.9722 -49.9227 273° West  Level Estimated
10:24AM 65.9769 -50.2310 272° West  Level Estimated
10:25AM 65.9811 -50.5394 272° West  Level Estimated
10:26AM 65.9846 -50.8478 272° West  Level Estimated
10:27AM 65.9875 -51.1564 271° West  Level Estimated
10:28AM 65.9898 -51.4650 271° West  Level Estimated
10:29AM 65.9914 -51.7737 271° West  Level Estimated
10:30AM 65.9925 -52.0824 271° West  Level Estimated
10:31AM 65.9929 -52.3911 270° West  Level Estimated
10:32AM 65.9927 -52.6998 270° West  Level Estimated
10:33AM 65.9919 -53.0085 270° West  Level Estimated
10:34AM 65.9904 -53.3172 269° West  Level Estimated
10:35AM 65.9884 -53.6258 269° West  Level Estimated
10:36AM 65.9857 -53.9344 269° West  Level Estimated
10:37AM 65.9825 -54.2429 269° West  Level Estimated
10:38AM 65.9786 -54.5513 268° West  Level Estimated
10:39AM 65.9740 -54.8596 268° West  Level Estimated
10:40AM 65.9689 -55.1679 268° West  Level Estimated
10:41AM 65.9632 -55.4759 268° West  Level Estimated
10:42AM 65.9568 -55.7839 267° West  Level Estimated
10:43AM 65.9498 -56.0916 267° West  Level Estimated
10:44AM 65.9422 -56.3992 267° West  Level Estimated
10:45AM 65.9340 -56.7066 266° West  Level Estimated
10:46AM 65.9252 -57.0138 266° West  Level Estimated
10:47AM 65.9157 -57.3208 266° West  Level Estimated
10:48AM 65.9057 -57.6275 266° West  Level Estimated
10:49AM 65.8950 -57.9340 265° West  Level Estimated
10:50AM 65.8837 -58.2402 265° West  Level Estimated
10:51AM 65.8718 -58.5462 265° West  Level Estimated
10:52AM 65.8594 -58.8519 264° West  Level Estimated
10:53AM 65.8463 -59.1572 264° West  Level Estimated
10:54AM 65.8326 -59.4623 264° West  Level Estimated
10:55AM 65.8182 -59.7670 264° West  Level Estimated
10:56AM 65.8028 -60.0807 263° West  Level Estimated
10:57AM 65.7868 -60.3940 263° West  Level Estimated
10:58AM 65.7702 -60.7069 263° West  Level Estimated
10:59AM 65.7529 -61.0194 262° West  Level Estimated
11:00AM 65.7349 -61.3315 262° West  Level Estimated
11:01AM 65.7163 -61.6431 262° West  Level Estimated
11:02AM 65.6971 -61.9543 262° West  Level Estimated
11:03AM 65.6773 -62.2650 261° West  Level Estimated
11:04AM 65.6568 -62.5753 261° West  Level Estimated
11:05AM 65.6357 -62.8850 261° West  Level Estimated
11:06AM 65.6140 -63.1942 260° West  Level Estimated
11:07AM 65.5916 -63.5029 260° West  Level Estimated
11:08AM 65.5686 -63.8111 260° West  Level Estimated
11:09AM 65.5450 -64.1187 260° West  Level Estimated
11:10AM 65.5208 -64.4258 259° West  Level Estimated
11:11AM 65.4959 -64.7322 259° West  Level Estimated
11:12AM 65.4705 -65.0381 259° West  Level Estimated
11:13AM 65.4444 -65.3434 259° West  Level Estimated
11:14AM 65.4177 -65.6480 258° West  Level Estimated
11:15AM 65.3904 -65.9521 258° West  Level Estimated
11:16AM 65.3624 -66.2555 258° West  Level Estimated
11:17AM 65.3339 -66.5582 257° West  Level Estimated
11:18AM 65.3048 -66.8603 257° West  Level Estimated
11:19AM 65.2750 -67.1617 257° West  Level Estimated
11:20AM 65.2447 -67.4624 257° West  Level Estimated
11:21AM 65.2138 -67.7625 256° West  Level Estimated
11:22AM 65.1823 -68.0618 256° West  Level Estimated
11:23AM 65.1501 -68.3604 256° West  Level Estimated
11:24AM 65.1174 -68.6582 255° West  Level Estimated
11:25AM 65.0841 -68.9554 255° West  Level Estimated
11:26AM 65.0502 -69.2517 255° West  Level Estimated
11:27AM 65.0157 -69.5474 255° West  Level Estimated
11:28AM 64.9807 -69.8422 254° West  Level Estimated
11:29AM 64.9455 -70.1321 254° West  Level Estimated
11:30AM 64.9099 -70.4212 254° West  Level Estimated
11:31AM 64.8736 -70.7095 254° West  Level Estimated
11:32AM 64.8368 -70.9970 253° West  Level Estimated
11:33AM 64.7995 -71.2838 253° West  Level Estimated
11:34AM 64.7616 -71.5697 253° West  Level Estimated
11:35AM 64.7231 -71.8549 253° West  Level Estimated
11:36AM 64.6841 -72.1392 252° West  Level Estimated
11:37AM 64.6445 -72.4227 252° West  Level Estimated
11:38AM 64.6045 -72.7054 252° West  Level Estimated
11:39AM 64.5638 -72.9872 252° West  Level Estimated
11:40AM 64.5227 -73.2682 251° West  Level Estimated
11:41AM 64.4810 -73.5483 251° West  Level Estimated
11:42AM 64.4388 -73.8276 251° West  Level Estimated
11:43AM 64.3960 -74.1060 251° West  Level Estimated
11:44AM 64.3527 -74.3835 250° West  Level Estimated
11:45AM 64.3089 -74.6602 250° West  Level Estimated
11:46AM 64.2646 -74.9360 250° West  Level Estimated
11:47AM 64.2197 -75.2109 250° West  Level Estimated
11:48AM 64.1744 -75.4849 249° West  Level Estimated
11:49AM 64.1285 -75.7580 249° West  Level Estimated
11:50AM 64.0822 -76.0302 249° West  Level Estimated
11:51AM 64.0353 -76.3015 249° West  Level Estimated
11:52AM 63.9879 -76.5718 248° West  Level Estimated
11:53AM 63.9400 -76.8413 248° West  Level Estimated
11:54AM 63.8916 -77.1098 248° West  Level Estimated
11:55AM 63.8427 -77.3774 248° West  Level Estimated
11:56AM 63.7934 -77.6441 247° West  Level Estimated
11:57AM 63.7435 -77.9098 247° West  Level Estimated
11:58AM 63.6931 -78.1746 247° West  Level Estimated
11:59AM 63.6423 -78.4384 247° West  Level Estimated
12:00PM 63.5910 -78.7013 246° West  Level Estimated
12:01PM 63.5392 -78.9632 246° West  Level Estimated
12:02PM 63.4869 -79.2242 246° West  Level Estimated
12:03PM 63.4342 -79.4843 246° West  Level Estimated
12:04PM 63.3809 -79.7433 245° Southwest  Level Estimated
12:05PM 63.3273 -80.0014 245° Southwest  Level Estimated
12:06PM 63.2731 -80.2586 245° Southwest  Level Estimated
12:07PM 63.2185 -80.5148 245° Southwest  Level Estimated
12:08PM 63.1634 -80.7700 245° Southwest  Level Estimated
12:09PM 63.1079 -81.0242 244° Southwest  Level Estimated
12:10PM 63.0519 -81.2775 244° Southwest  Level Estimated
12:11PM 62.9955 -81.5298 244° Southwest  Level Estimated
12:12PM 62.9386 -81.7811 244° Southwest  Level Estimated
12:13PM 62.8813 -82.0314 243° Southwest  Level Estimated
12:14PM 62.8235 -82.2807 243° Southwest  Level Estimated
12:15PM 62.7653 -82.5291 243° Southwest  Level Estimated
12:16PM 62.7067 -82.7765 243° Southwest  Level Estimated
12:17PM 62.6476 -83.0229 243° Southwest  Level Estimated
12:18PM 62.5881 -83.2683 242° Southwest  Level Estimated
12:19PM 62.5282 -83.5128 242° Southwest  Level Estimated
12:20PM 62.4678 -83.7562 242° Southwest  Level Estimated
12:21PM 62.4070 -83.9987 242° Southwest  Level Estimated
12:22PM 62.3459 -84.2402 241° Southwest  Level Estimated
12:23PM 62.2842 -84.4807 241° Southwest  Level Estimated
12:24PM 62.2222 -84.7202 241° Southwest  Level Estimated
12:25PM 62.1598 -84.9587 241° Southwest  Level Estimated
12:26PM 62.0969 -85.1962 241° Southwest  Level Estimated
12:27PM 62.0337 -85.4328 240° Southwest  Level Estimated
12:28PM 61.9700 -85.6683 240° Southwest  Level Estimated
12:29PM 61.9059 -85.9029 240° Southwest  Level Estimated
12:30PM 61.8415 -86.1365 240° Southwest  Level Estimated
12:31PM 61.7766 -86.3691 240° Southwest  Level Estimated
12:32PM 61.7114 -86.6008 239° Southwest  Level Estimated
12:33PM 61.6458 -86.8314 239° Southwest  Level Estimated
12:34PM 61.5798 -87.0611 239° Southwest  Level Estimated
12:35PM 61.5134 -87.2898 239° Southwest  Level Estimated
12:36PM 61.4466 -87.5175 239° Southwest  Level Estimated
12:37PM 61.3794 -87.7442 238° Southwest  Level Estimated
12:38PM 61.3119 -87.9700 238° Southwest  Level Estimated
12:39PM 61.2440 -88.1948 238° Southwest  Level Estimated
12:40PM 61.1757 -88.4186 238° Southwest  Level Estimated
12:41PM 61.1070 -88.6415 238° Southwest  Level Estimated
12:42PM 61.0380 -88.8634 237° Southwest  Level Estimated
12:43PM 60.9687 -89.0843 237° Southwest  Level Estimated
12:44PM 60.8989 -89.3042 237° Southwest  Level Estimated
12:45PM 60.8288 -89.5232 237° Southwest  Level Estimated
12:46PM 60.7584 -89.7412 237° Southwest  Level Estimated
12:47PM 60.6876 -89.9583 236° Southwest  Level Estimated
12:48PM 60.6164 -90.1744 236° Southwest  Level Estimated
12:49PM 60.5449 -90.3896 236° Southwest  Level Estimated
12:50PM 60.4731 -90.6038 236° Southwest  Level Estimated
12:51PM 60.4009 -90.8171 236° Southwest  Level Estimated
12:52PM 60.3284 -91.0294 235° Southwest  Level Estimated
12:53PM 60.2556 -91.2408 235° Southwest  Level Estimated
12:54PM 60.1824 -91.4512 235° Southwest  Level Estimated
12:55PM 60.1088 -91.6607 235° Southwest  Level Estimated
12:56PM 60.0350 -91.8693 235° Southwest  Level Estimated
12:57PM 59.9608 -92.0769 235° Southwest  Level Estimated
12:58PM 59.8863 -92.2836 234° Southwest  Level Estimated
12:59PM 59.8115 -92.4893 234° Southwest  Level Estimated
01:00PM 59.7363 -92.6942 234° Southwest  Level Estimated
01:01PM 59.6609 -92.8981 234° Southwest  Level Estimated
01:02PM 59.5851 -93.1011 234° Southwest  Level Estimated
01:02PM 62.0167 -101.7000 233° Southwest 480 552 38,000  Level Edmonton Center
01:03PM 59.5090 -93.3032 233° Southwest  Level Estimated
01:03PM 61.9167 -101.8500 215° Southwest 480 552 38,000  Level Edmonton Center
01:04PM 59.4326 -93.5044 233° Southwest  Level Estimated
01:04PM 61.8167 -102.0500 223° Southwest 480 552 38,000  Level Edmonton Center
01:05PM 59.3559 -93.7047 233° Southwest  Level Estimated
01:05PM 61.7167 -102.2000 215° Southwest 480 552 38,000  Level Edmonton Center
01:06PM 59.2789 -93.9041 233° Southwest  Level Estimated
01:06PM 61.6000 -102.3833 217° Southwest 480 552 38,000  Level Edmonton Center
01:07PM 59.2015 -94.1025 233° Southwest  Level Estimated
01:07PM 61.5000 -102.5333 216° Southwest 480 552 38,000  Level Edmonton Center
01:08PM 59.1239 -94.3001 233° Southwest  Level Estimated
01:08PM 61.3833 -102.7167 217° Southwest 480 552 38,000  Level Edmonton Center
01:09PM 61.2667 -102.9167 220° Southwest 480 552 38,000  Level Edmonton Center
01:10PM 61.1667 -103.0833 219° Southwest 480 552 38,000  Level Edmonton Center
01:11PM 61.0667 -103.2667 222° Southwest 480 552 38,000  Level Edmonton Center
01:12PM 60.9667 -103.4500 222° Southwest 480 552 38,000  Level Edmonton Center
01:13PM 60.8667 -103.6667 227° Southwest 470 541 38,000  Level Edmonton Center
01:14PM 60.7667 -103.8500 222° Southwest 470 541 38,000  Level Edmonton Center
01:15PM 60.6667 -104.0167 219° Southwest 480 552 38,000  Level Edmonton Center
01:16PM 60.5833 -104.2000 227° Southwest 470 541 38,000  Level Edmonton Center
01:17PM 60.4833 -104.3667 219° Southwest 470 541 38,000  Level Edmonton Center
01:18PM 60.3833 -104.5833 227° Southwest 470 541 38,000  Level Edmonton Center
01:19PM 60.2833 -104.7500 220° Southwest 470 541 38,000  Level Edmonton Center
01:20PM 60.1833 -104.9167 220° Southwest 470 541 38,000  Level Edmonton Center
01:21PM 60.0833 -105.1000 222° Southwest 470 541 38,000  Level Edmonton Center
01:22PM 59.9667 -105.3000 221° Southwest 480 552 38,000  Level Edmonton Center
01:23PM 59.8667 -105.4667 220° Southwest 480 552 38,000  Level Edmonton Center
01:24PM 59.7667 -105.6333 220° Southwest 480 552 38,000  Level Edmonton Center
01:25PM 59.6667 -105.8333 225° Southwest 480 552 38,000  Level Edmonton Center
01:26PM 59.5667 -106.0000 220° Southwest 480 552 38,000  Level Edmonton Center
01:27PM 59.4667 -106.1667 220° Southwest 470 541 38,000  Level Edmonton Center
01:28PM 59.3500 -106.3167 213° Southwest 470 541 38,000  Level Edmonton Center
01:29PM 59.2667 -106.4833 226° Southwest 470 541 38,000  Level Edmonton Center
01:30PM 59.1667 -106.6500 221° Southwest 480 552 38,000  Level Edmonton Center
01:31PM 59.0667 -106.8333 223° Southwest 480 552 38,000  Level Edmonton Center
01:32PM 58.9333 -107.0000 213° Southwest 480 552 38,000  Level Edmonton Center
01:33PM 58.8333 -107.1833 224° Southwest 480 552 38,000  Level Edmonton Center
01:34PM 58.7500 -107.3500 226° Southwest 480 552 38,000  Level Edmonton Center
01:35PM 58.6500 -107.5000 218° Southwest 480 552 38,000  Level Edmonton Center
01:36PM 58.5333 -107.6500 214° Southwest 480 552 38,000  Level Edmonton Center
01:37PM 58.4333 -107.8500 226° Southwest 480 552 38,000  Level Edmonton Center
01:38PM 58.3333 -108.0000 218° Southwest 480 552 38,000  Level Edmonton Center
01:39PM 58.2167 -108.1500 214° Southwest 480 552 38,000  Level Edmonton Center
01:40PM 58.1167 -108.3000 218° Southwest 480 552 38,000  Level Edmonton Center
01:41PM 58.0167 -108.4833 224° Southwest 480 552 38,000  Level Edmonton Center
01:42PM 57.9167 -108.6667 224° Southwest 480 552 38,000  Level Edmonton Center
01:43PM 57.8333 -108.8500 230° Southwest 480 552 38,000  Level Edmonton Center
01:44PM 57.7333 -109.0333 224° Southwest 480 552 38,000  Level Edmonton Center
01:45PM 57.6500 -109.2167 230° Southwest 480 552 38,000  Level Edmonton Center
01:46PM 57.5500 -109.4167 227° Southwest 480 552 38,000  Level Edmonton Center
01:47PM 57.4667 -109.5667 224° Southwest 470 541 38,000  Level Edmonton Center
01:48PM 57.3500 -109.7667 223° Southwest 470 541 38,000  Level Edmonton Center
01:49PM 57.2833 -109.9500 236° Southwest 470 541 38,000  Level Edmonton Center
01:50PM 57.1667 -110.1333 220° Southwest 470 541 38,000  Level Edmonton Center
01:51PM 57.1000 -110.3000 234° Southwest 470 541 38,000  Level Edmonton Center
01:52PM 57.0000 -110.4500 219° Southwest 470 541 38,000  Level Edmonton Center
01:53PM 56.9167 -110.6500 233° Southwest 470 541 38,000  Level Edmonton Center
01:54PM 56.8167 -110.8000 219° Southwest 470 541 38,000  Level Edmonton Center
01:55PM 56.7000 -110.9833 221° Southwest 470 541 38,000  Level Edmonton Center
01:56PM 56.6167 -111.1333 225° Southwest 470 541 38,000  Level Edmonton Center
01:57PM 56.4833 -111.2667 209° Southwest 480 552 38,000  Level Edmonton Center
01:58PM 56.3833 -111.3667 209° Southwest 470 541 38,000  Level Edmonton Center
01:59PM 56.2500 -111.4667 203° Southwest 470 541 38,000  Level Edmonton Center
02:00PM 56.1333 -111.5667 206° Southwest 480 552 38,000  Level Edmonton Center
02:01PM 56.0000 -111.6667 203° Southwest 480 552 38,000  Level Edmonton Center
02:02PM 55.9000 -111.7667 209° Southwest 480 552 38,000  Level Edmonton Center
02:03PM 55.7667 -111.8667 203° Southwest 480 552 38,000  Level Edmonton Center
02:04PM 55.6500 -111.9667 206° Southwest 480 552 38,000  Level Edmonton Center
02:05PM 55.5000 -112.1000 207° Southwest 480 552 38,000  Level Edmonton Center
02:06PM 55.4000 -112.2000 210° Southwest 480 552 38,000  Level Edmonton Center
02:07PM 55.2667 -112.2833 200° South 480 552 38,000  Level Edmonton Center
02:14PM 54.5146 -112.8737 204° Southwest 482 555 38,000  Level FlightAware ADS-B (CYXD)
02:14PM 54.4433 -112.9285 204° Southwest 482 555 38,000  Level FlightAware ADS-B (CYXD)
02:15PM 54.3822 -112.9754 204° Southwest 482 555 38,000  Level FlightAware ADS-B (CYXD)
02:15PM 54.3218 -113.0223 204° Southwest 482 555 38,000  Level FlightAware ADS-B (CYXD)
02:16PM 54.2347 -113.0891 204° Southwest 473 544 38,000  Level FlightAware ADS-B (CYXD)
02:16PM 54.1688 -113.1382 204° Southwest 479 551 38,000  Level FlightAware ADS-B (CYXD)
02:17PM 54.0845 -113.2022 204° Southwest 478 550 38,000  Level FlightAware ADS-B (CYXD)
02:18PM 53.9277 -113.3210 204° Southwest 479 551 38,000  Level FlightAware ADS-B (CYXD)
02:19PM 53.8325 -113.3924 204° Southwest 480 552 38,000  Level FlightAware ADS-B (CYXD)
02:20PM 53.7688 -113.4393 204° Southwest 481 554 38,000  Level FlightAware ADS-B (CYXD)
02:20PM 53.6939 -113.4951 204° Southwest 482 555 38,000  Level FlightAware ADS-B (CYXD)
02:21PM 53.6329 -113.5402 204° Southwest 481 554 38,000  Level FlightAware ADS-B (CYXD)
02:21PM 53.5711 -113.5851 204° Southwest 479 551 38,000  Level FlightAware ADS-B (CYXD)
02:22PM 53.4991 -113.6373 204° Southwest 479 551 38,000  Level FlightAware ADS-B (CYXD)
02:22PM 53.4330 -113.6864 204° Southwest 479 551 38,000  Level FlightAware ADS-B (CYXD)
02:23PM 53.3725 -113.7307 204° Southwest 479 551 38,000  Level FlightAware ADS-B (CYXD)
02:23PM 53.3118 -113.7748 203° Southwest 478 550 38,000  Level FlightAware ADS-B (CYXD)
02:24PM 53.2217 -113.8397 206° Southwest 477 549 38,000  Level FlightAware ADS-B (CYXD)
02:25PM 53.1379 -113.9261 217° Southwest 467 537 38,000  Level FlightAware ADS-B (CYXD)
02:25PM 53.0880 -113.9894 218° Southwest 467 537 38,000  Level FlightAware ADS-B (CYXD)
02:26PM 53.0390 -114.0534 218° Southwest 466 536 38,000  Level FlightAware ADS-B (CYXD)
02:27PM 52.9604 -114.1536 218° Southwest 465 535 38,000  Level FlightAware ADS-B (CYXD)
02:27PM 52.9079 -114.2205 217° Southwest 464 534 38,000  Level FlightAware ADS-B (CYXD)
02:28PM 52.8574 -114.2828 217° Southwest 463 533 38,000  Level FlightAware ADS-B (CYXD)
02:28PM 52.7823 -114.3768 217° Southwest 463 533 38,000  Level FlightAware ADS-B (CYXD)
02:30PM 52.6288 -114.5680 217° Southwest 463 533 38,000  Level FlightAware ADS-B (CYXD)
02:31PM 52.5142 -114.7091 217° Southwest 461 531 38,000  Level FlightAware ADS-B (CYXD)
02:32PM 52.4333 -114.7500 217° Southwest 460 529 38,000  Level Vancouver Center
02:33PM 52.3333 -114.8833 219° Southwest 460 529 38,000  Level Vancouver Center
02:34PM 52.2167 -115.0167 215° Southwest 470 541 38,000  Level Vancouver Center
02:35PM 52.1333 -115.1333 221° Southwest 460 529 38,000  Level Vancouver Center
02:36PM 52.0167 -115.2667 215° Southwest 460 529 38,000  Level Vancouver Center
02:37PM 51.9333 -115.3667 217° Southwest 460 529 38,000  Level Vancouver Center
02:38PM 51.8167 -115.5000 215° Southwest 450 518 38,000  Level Vancouver Center
02:39PM 51.7167 -115.6167 216° Southwest 450 518 38,000  Level Vancouver Center
02:40PM 51.6167 -115.7167 212° Southwest 450 518 38,000  Level Vancouver Center
02:41PM 51.4833 -115.8167 205° Southwest 470 541 38,000  Level Vancouver Center
02:42PM 51.3833 -115.9000 207° Southwest 470 541 38,000  Level Vancouver Center
02:43PM 51.2500 -116.0000 205° Southwest 470 541 38,000  Level Vancouver Center
02:44PM 51.1333 -116.0667 200° South 470 541 38,000  Level Vancouver Center
02:45PM 51.0000 -116.1500 201° Southwest 460 529 38,000  Level Vancouver Center
02:46PM 50.9000 -116.2500 212° Southwest 470 541 38,000  Level Vancouver Center
02:47PM 50.7833 -116.3167 200° South 460 529 38,000  Level Vancouver Center
02:48PM 50.6667 -116.3833 200° South 460 529 38,000  Level Vancouver Center
02:49PM 50.4667 -116.5833 213° Southwest 460 529 38,000  Level Edmonton Center
02:50PM 50.3667 -116.6500 203° Southwest 470 541 38,000  Level Edmonton Center
02:51PM 50.3000 -116.6333 171° South 470 541 38,000  Level Vancouver Center
02:52PM 50.1833 -116.7167 205° Southwest 480 552 38,000  Level Vancouver Center
02:53PM 50.0667 -116.8000 205° Southwest 480 552 38,000  Level Vancouver Center
02:54PM 49.9333 -116.9000 206° Southwest 480 552 38,000 60 Level Vancouver Center
02:55PM 49.8167 -116.9667 200° South 480 552 38,200 840 Climbing Vancouver Center
02:56PM 49.6833 -117.0333 198° South 480 552 39,700 900 Climbing Vancouver Center
02:57PM 49.5833 -117.1333 213° Southwest 470 541 40,000 120 Climbing Vancouver Center
02:58PM 49.4500 -117.2000 198° South 470 541 40,000  Level Vancouver Center
02:59PM 49.3333 -117.2667 200° South 470 541 40,000  Level Vancouver Center
03:00PM 49.2000 -117.3500 202° Southwest 470 541 40,000  Level Vancouver Center
03:01PM 49.1000 -117.4167 204° Southwest 460 529 40,000  Level Vancouver Center
03:02PM 48.9833 -117.4833 201° Southwest 460 529 40,000  Level Vancouver Center
03:03PM 48.8500 -117.5833 206° Southwest 460 529 40,000  Level Vancouver Center
03:04PM 48.7333 -117.6500 201° Southwest 460 529 40,000  Level Vancouver Center
03:05PM 48.6453 -117.7392 214° Southwest 459 528 40,000  Level Seattle Center
03:06PM 48.5269 -117.8111 202° Southwest 459 528 40,000  Level Seattle Center
03:07PM 48.4061 -117.8850 202° Southwest 466 536 40,000  Level Seattle Center
03:08PM 48.2858 -117.9606 203° Southwest 469 540 40,000  Level Seattle Center
03:09PM 48.1664 -118.0331 202° Southwest 468 539 40,000  Level Seattle Center
03:10PM 48.0211 -118.1200 202° Southwest 470 541 40,000  Level Seattle Center
03:11PM 47.9003 -118.1931 202° Southwest 471 542 40,000  Level Seattle Center
03:12PM 47.7803 -118.2642 202° Southwest 469 540 40,000  Level Seattle Center
03:13PM 47.6614 -118.3347 202° Southwest 465 535 40,000  Level Seattle Center
03:14PM 47.5422 -118.4067 202° Southwest 464 534 40,000  Level Seattle Center
03:20PM 46.7903 -118.8430 201° Southwest 450 518 40,000  Level FlightAware ADS-B
03:21PM 46.7008 -118.8944 201° Southwest 450 518 40,000  Level Seattle Center
03:22PM 46.5842 -118.9606 201° Southwest 450 518 40,000  Level Seattle Center
03:23PM 46.4694 -119.0267 202° Southwest 446 513 40,000  Level Seattle Center
03:24PM 46.3536 -119.0917 201° Southwest 447 514 40,000  Level Seattle Center
03:25PM 46.2386 -119.1567 201° Southwest 445 512 40,000  Level Seattle Center
03:26PM 46.1208 -119.2211 201° Southwest 451 519 40,000  Level Seattle Center
03:27PM 45.9817 -119.3000 202° Southwest 450 518 40,000  Level Seattle Center
03:28PM 45.8636 -119.3633 200° South 451 519 40,000  Level Seattle Center
03:34PM 45.1155 -119.7689 201° Southwest 468 539 40,000  Level FlightAware ADS-B (KSLE)
03:35PM 45.0409 -119.8101 201° Southwest 471 542 40,000  Level FlightAware ADS-B (KSLE)
03:36PM 44.9611 -119.8525 201° Southwest 470 541 40,000  Level FlightAware ADS-B (KSLE)
03:40PM 44.4699 -120.1127 201° Southwest 462 532 40,000  Level FlightAware ADS-B (KSLE)
03:40PM 44.3844 -120.1566 201° Southwest 461 531 40,000  Level FlightAware ADS-B (KSLE)
03:43PM 44.0599 -120.3253 200° South 454 522 40,000 -240 Level FlightAware ADS-B (KSLE)
03:44PM 43.9286 -120.3942 200° South 449 517 39,200 -480 Descending Seattle Center
03:45PM 43.8033 -120.4572 200° South 443 510 39,000 -120 Descending Seattle Center
03:46PM 43.6872 -120.5156 200° South 443 510 39,000  Level Seattle Center
03:48PM 43.5703 -120.5750 200° South 447 514 39,000  Level Seattle Center
03:49PM 43.4644 -120.6322 201° Southwest 449 517 39,000  Level Seattle Center
03:50PM 43.3483 -120.6906 200° South 446 513 39,000  Level Seattle Center
03:51PM 43.2303 -120.7494 200° South 451 519 39,000  Level Seattle Center
03:52PM 43.0933 -120.8197 201° Southwest 442 509 39,000  Level Seattle Center
03:53PM 42.9764 -120.8756 199° South 446 513 39,000  Level Seattle Center
03:54PM 42.8619 -120.9317 200° South 440 506 39,000  Level Seattle Center
03:55PM 42.7475 -120.9886 200° South 437 503 39,000  Level Seattle Center
03:56PM 42.6336 -121.0464 200° South 438 504 39,000  Level Seattle Center
03:57PM 42.5194 -121.1008 199° South 436 502 39,000  Level Seattle Center
03:58PM 42.4078 -121.1542 199° South 427 491 39,000  Level Seattle Center
03:59PM 42.2997 -121.2067 200° South 416 479 39,000  Level Seattle Center
04:00PM 42.1908 -121.2614 200° South 417 480 39,000  Level Seattle Center
04:01PM 42.0800 -121.3144 200° South 418 481 39,000  Level Seattle Center
04:02PM 41.9678 -121.3675 199° South 423 487 39,000  Level Seattle Center
04:03PM 41.8550 -121.4222 200° South 426 490 39,000  Level Seattle Center
04:04PM 41.7431 -121.4761 200° South 425 489 39,000  Level Seattle Center
04:10PM 41.0281 -121.7754 196° South 410 472 39,000  Level FlightAware ADS-B (KAHC)
04:11PM 40.9379 -121.8105 196° South 410 472 39,000  Level FlightAware ADS-B (KAHC)
04:11PM 40.8760 -121.8344 196° South 413 475 39,000  Level FlightAware ADS-B (KAHC)
04:12PM 40.8206 -121.8558 196° South 416 479 39,000  Level FlightAware ADS-B (KAHC)
04:12PM 40.7649 -121.8773 196° South 418 481 39,000  Level FlightAware ADS-B (KAHC)
04:13PM 40.7078 -121.8988 196° South 421 484 39,000  Level FlightAware ADS-B (KAHC)
04:14PM 40.6664 -121.9153 196° South 421 484 39,000  Level FlightAware ADS-B (KAHC)
04:14PM 40.5737 -121.9501 196° South 419 482 39,000  Level FlightAware ADS-B (KAHC)
04:15PM 40.5178 -121.9715 196° South 419 482 39,000  Level FlightAware ADS-B (KAHC)
04:15PM 40.4483 -121.9985 196° South 419 482 39,000  Level FlightAware ADS-B (KAHC)
04:16PM 40.3924 -122.0199 196° South 420 483 39,000  Level FlightAware ADS-B (KAHC)
04:16PM 40.3356 -122.0411 196° South 421 484 39,000  Level FlightAware ADS-B (KAHC)
04:17PM 40.2651 -122.0681 196° South 422 486 39,000  Level FlightAware ADS-B (KAHC)
04:18PM 40.2275 -122.0822 196° South 423 487 39,000  Level FlightAware ADS-B
04:18PM 40.1222 -122.1221 196° South 426 490 39,000  Level FlightAware ADS-B (KAHC)
04:19PM 40.0644 -122.1436 196° South 428 493 39,000  Level FlightAware ADS-B (KAHC)
04:19PM 39.9729 -122.1780 196° South 431 496 39,000  Level FlightAware ADS-B (KAHC)
04:20PM 39.9247 -122.1960 196° South 430 495 39,000  Level FlightAware ADS-B
04:21PM 39.8493 -122.2239 195° South 429 494 39,000  Level FlightAware ADS-B
04:21PM 39.7721 -122.2529 196° South 427 491 39,000  Level FlightAware ADS-B
04:22PM 39.6578 -122.2956 196° South 427 491 39,000 -360 Level FlightAware ADS-B
04:23PM 39.5828 -122.3229 195° South 422 486 38,500 -840 Descending FlightAware ADS-B
04:24PM 39.4744 -122.3771 216° Southwest 380 437 37,600 -840 Descending FlightAware ADS-B
04:24PM 39.4516 -122.4062 230° Southwest 358 412 37,400 -1,200 Descending FlightAware ADS-B
04:25PM 39.4116 -122.4766 234° Southwest 359 413 36,400 -1,440 Descending FlightAware ADS-B
04:26PM 39.3728 -122.5478 235° Southwest 364 419 35,500 -1,140 Descending FlightAware ADS-B
04:26PM 39.3285 -122.6116 218° Southwest 377 434 34,900 -960 Descending FlightAware ADS-B
04:27PM 39.2614 -122.6524 193° South 407 468 34,300 -660 Descending FlightAware ADS-B
04:29PM 39.0744 -122.6864 187° South 407 468 33,400 -540 Descending FlightAware ADS-B
04:29PM 38.9971 -122.7003 188° South 401 461 33,100 -540 Descending FlightAware ADS-B
04:30PM 38.9254 -122.7137 188° South 399 459 32,700 -1,320 Descending FlightAware ADS-B
04:31PM 38.8521 -122.7274 188° South 386 444 31,400 -2,160 Descending FlightAware ADS-B
04:32PM 38.7550 -122.7456 188° South 384 442 29,200 -2,400 Descending FlightAware ADS-B
04:32PM 38.6838 -122.7586 188° South 384 442 27,500 -2,460 Descending FlightAware ADS-B
04:33PM 38.6087 -122.7718 187° South 384 442 25,900 -2,340 Descending FlightAware ADS-B
04:34PM 38.5404 -122.7844 188° South 382 440 24,400 -2,340 Descending FlightAware ADS-B
04:34PM 38.4730 -122.7968 188° South 380 437 22,900 -2,160 Descending FlightAware ADS-B
04:35PM 38.4064 -122.8087 188° South 373 429 21,500 -2,040 Descending FlightAware ADS-B
04:36PM 38.3323 -122.8222 188° South 364 419 20,200 -1,980 Descending FlightAware ADS-B
04:36PM 38.2658 -122.8342 188° South 358 412 18,900 -1,800 Descending FlightAware ADS-B
04:37PM 38.2093 -122.8444 187° South 354 407 17,900 -1,980 Descending FlightAware ADS-B
04:38PM 38.1354 -122.8575 188° South 351 404 16,300 -1,980 Descending FlightAware ADS-B
04:38PM 38.1011 -122.8624 181° South 352 405 15,200 -1,860 Descending FlightAware ADS-B
04:39PM 38.0171 -122.8030 137° Southeast 368 423 13,900 -1,860 Descending FlightAware ADS-B
04:40PM 37.9423 -122.7172 138° Southeast 353 406 12,100 -1,500 Descending FlightAware ADS-B
04:41PM 37.8719 -122.6415 139° Southeast 351 404 11,000 -960 Descending FlightAware ADS-B
04:41PM 37.8634 -122.6330 140° Southeast 329 379 11,000 -120 Level FlightAware ADS-B
04:43PM 37.7630 -122.5270 140° Southeast 261 300 10,900 -120 Descending FlightAware ADS-B
04:43PM 37.7570 -122.5202 140° Southeast 260 299 10,900  Level FlightAware ADS-B (KPAO)
04:44PM 37.7091 -122.4700 139° Southeast 262 302 10,900  Level FlightAware ADS-B
04:44PM 37.6690 -122.4270 140° Southeast 260 299 10,900  Level FlightAware ADS-B
04:44PM 37.6820 -122.4404 140° Southeast 260 299 10,900  Level FlightAware ADS-B (KPAO)
04:45PM 37.6410 -122.3970 140° Southeast 259 298 10,900  Level FlightAware ADS-B
04:45PM 37.6275 -122.3826 139° Southeast 260 299 10,900  Level FlightAware ADS-B (KPAO)
04:45PM 37.6098 -122.3660 139° Southeast 260 299 10,900  Level FlightAware ADS-B
04:45PM 37.6037 -122.3610 150° Southeast 253 291 10,900 -600 Level FlightAware ADS-B
04:46PM 37.5880 -122.3506 150° Southeast 242 278 10,700 -1,200 Descending FlightAware ADS-B (KPAO)
04:46PM 37.5734 -122.3400 150° Southeast 241 277 10,300 -1,800 Descending FlightAware ADS-B
04:46PM 37.5583 -122.3290 150° Southeast 241 277 9,800 -1,920 Descending FlightAware ADS-B
04:46PM 37.5509 -122.3235 151° Southeast 243 280 9,500 -2,040 Descending FlightAware ADS-B (KPAO)
04:46PM 37.5432 -122.3190 151° Southeast 243 280 9,300 -1,680 Descending FlightAware ADS-B
04:47PM 37.5276 -122.3070 150° Southeast 245 282 8,900 -1,800 Descending FlightAware ADS-B
04:47PM 37.5098 -122.2950 151° Southeast 244 281 8,300 -1,860 Descending FlightAware ADS-B
04:47PM 37.4948 -122.2840 150° Southeast 245 282 7,900 -1,620 Descending FlightAware ADS-B
04:48PM 37.4796 -122.2730 151° Southeast 244 281 7,500 -1,620 Descending FlightAware ADS-B
04:48PM 37.4764 -122.2709 150° Southeast 245 282 7,400 -1,620 Descending FlightAware ADS-B (KPAO)
04:48PM 37.4647 -122.2620 150° Southeast 243 280 7,100 -1,020 Descending FlightAware ADS-B
04:48PM 37.4470 -122.2500 151° Southeast 242 278 6,900 -540 Descending FlightAware ADS-B
04:48PM 37.4321 -122.2390 150° Southeast 231 266 6,800  Descending FlightAware ADS-B
04:49PM 37.4175 -122.2290 150° Southeast 208 239 6,900 180 Climbing FlightAware ADS-B
04:49PM 37.4057 -122.2200 150° Southeast 208 239 6,900 -300 Level FlightAware ADS-B
04:49PM 37.4024 -122.2160 133° Southeast 200 230 6,800 -780 Descending FlightAware ADS-B
04:49PM 37.4006 -122.2130 127° Southeast 202 232 6,800 -1,200 Level FlightAware ADS-B
04:49PM 37.3977 -122.2060 112° Southeast 207 238 6,600 -1,740 Descending FlightAware ADS-B
04:49PM 37.3965 -122.1970 95° East 212 244 6,400 -1,500 Descending FlightAware ADS-B
04:49PM 37.3970 -122.1900 82° East 215 247 6,300 -1,800 Descending FlightAware ADS-B
04:49PM 37.3985 -122.1840 71° East 217 250 6,100 -1,380 Descending FlightAware ADS-B
04:49PM 37.3999 -122.1810 62° Northeast 219 252 6,100 -780 Level FlightAware ADS-B
04:50PM 37.4023 -122.1750 58° Northeast 218 251 6,000 -1,200 Descending FlightAware ADS-B
04:50PM 37.4058 -122.1690 54° Northeast 216 249 5,900 -1,200 Descending FlightAware ADS-B
04:50PM 37.4145 -122.1540 54° Northeast 211 243 5,600 -1,080 Descending FlightAware ADS-B
04:50PM 37.4154 -122.1526 54° Northeast 212 244 5,600 -900 Level FlightAware ADS-B
04:50PM 37.4184 -122.1470 55° Northeast 211 243 5,500 -1,440 Descending FlightAware ADS-B
04:50PM 37.4273 -122.1310 55° Northeast 210 242 5,100 -2,040 Descending FlightAware ADS-B
04:50PM 37.4278 -122.1296 51° Northeast 210 242 4,900 -1,800 Descending FlightAware ADS-B (KPAO)
04:50PM 37.4336 -122.1210 44° Northeast 210 242 4,800 -960 Descending FlightAware ADS-B
04:51PM 37.4368 -122.1180 35° Northeast 210 242 4,700 -1,500 Descending FlightAware ADS-B
04:51PM 37.4399 -122.1160 25° Northeast 209 241 4,600 -1,740 Descending FlightAware ADS-B
04:51PM 37.4428 -122.1144 18° North 208 239 4,500 -1,140 Descending FlightAware ADS-B (KPAO)
04:51PM 37.4628 -122.1152 348° North 198 228 4,100 -840 Descending FlightAware ADS-B (KPAO)
04:51PM 37.4791 -122.1195 348° North 199 229 3,900 -360 Descending FlightAware ADS-B (KPAO)
04:52PM 37.4866 -122.1217 348° North 204 235 3,900 -360 Level FlightAware ADS-B (KPAO)
04:52PM 37.5178 -122.1339 322° Northwest 198 228 3,700 -960 Descending FlightAware ADS-B (KPAO)
04:52PM 37.5250 -122.1515 293° West 191 220 3,300 -1,140 Descending FlightAware ADS-B (KPAO)
04:53PM 37.5531 -122.2188 293° West 191 220 2,100 -840 Descending FlightAware ADS-B (KPAO)
04:54PM 37.5667 -122.2500 293° West 180 207 1,800 -660 Descending Northern Cal TRACON
04:55PM 37.5814 -122.2867 297° West 185 213 1,200 -780 Descending Oakland Center
04:56PM 37.6011 -122.3344 298° West 169 194 500 -540 Descending Oakland Center
04:57PM 37.6242 -122.3883 298° West 163 188 200 -300 Descending Oakland Center